Flight Track Log - Related Links

Times and Time Zones

All times are in EDT time to prevent confusion due to time zone crossing. See the SWA1180 flight status page for this flight to view local times or setup timezone preferences in your user account.

Time Position Orientation Groundspeed Altitude Reporting Facility
EDT Latitude Longitude Course Direction KTS MPH feet Rate Location/Type
Sat 04:28:54 PM 41.9461 -72.6997 310° West 126 145 1,300  Level Boston Center
Sat 04:29:07 PM 41.9508 -72.7072 310° West 134 154 1,600 2,211 Climbing Boston Center
Sat 04:30:10 PM 41.9850 -72.7619 310° West 176 203 4,100 2,855 Climbing Boston Center
Sat 04:31:11 PM 42.0389 -72.7975 334° Northwest 209 241 7,500 3,393 Climbing Boston Center
Sat 04:32:12 PM 42.1047 -72.8361 336° Northwest 255 293 11,000 3,885 Climbing Boston Center
Sat 04:33:13 PM 42.1861 -72.8850 336° Northwest 294 338 15,400 3,393 Climbing Boston Center
Sat 04:34:14 PM 42.2647 -72.9325 336° Northwest 310 357 17,900 2,459 Climbing Boston Center
Sat 04:35:15 PM 42.3483 -72.9825 336° Northwest 333 383 20,400 2,656 Climbing Boston Center
Sat 04:36:16 PM 42.4392 -73.0342 337° Northwest 352 405 23,300 1,770 Climbing Boston Center
Sat 04:37:17 PM 42.5411 -73.0881 339° North 359 413 24,000 344 Climbing Boston Center
Sat 04:38:18 PM 42.6369 -73.1414 338° Northwest 366 421 24,000 934 Level Boston Center
Sat 04:39:19 PM 42.7314 -73.1947 337° Northwest 366 421 25,900 1,967 Climbing Boston Center
Sat 04:40:20 PM 42.8269 -73.2486 338° Northwest 368 423 28,000 1,918 Climbing Boston Center
Sat 04:41:21 PM 42.8925 -73.3533 311° West 384 442 29,800 1,820 Climbing Boston Center
Sat 04:42:22 PM 42.9058 -73.4822 278° West 381 438 31,700 2,607 Climbing Boston Center
Sat 04:43:23 PM 42.9225 -73.6481 278° West 364 419 35,100 3,049 Climbing Boston Center
Sat 04:44:24 PM 42.9361 -73.7728 279° West 337 388 37,900 2,115 Climbing Boston Center
Sat 04:45:25 PM 42.9486 -73.8883 278° West 312 359 39,400 984 Climbing Boston Center
Sat 04:46:26 PM 42.9594 -74.0019 277° West 304 350 39,900 295 Climbing Boston Center
Sat 04:47:27 PM 42.9728 -74.1239 279° West 318 366 40,000 49 Climbing Boston Center
Sat 04:48:28 PM 42.9839 -74.2450 277° West 319 367 40,000  Level Boston Center
Sat 04:49:29 PM 42.9958 -74.3692 278° West 325 374 40,000  Level Boston Center
Sat 04:50:31 PM 43.0075 -74.4950 277° West 332 382 40,000  Level Boston Center
Sat 04:51:32 PM 43.0194 -74.6206 277° West 334 384 40,000  Level Boston Center
Sat 04:52:33 PM 43.0042 -74.7447 260° West 332 382 40,000  Level Boston Center
Sat 04:53:34 PM 42.9836 -74.8650 257° West 326 375 40,000  Level Boston Center
Sat 04:54:35 PM 42.9633 -74.9856 257° West 326 375 40,000  Level Boston Center
Sat 04:55:36 PM 42.9442 -75.1047 258° West 323 372 40,000  Level Boston Center
Sat 04:56:38 PM 42.9236 -75.2214 257° West 318 366 40,000  Level Boston Center
Sat 04:57:38 PM 42.9003 -75.3636 257° West 318 366 40,000  Level Boston Center
Sat 04:58:39 PM 42.8797 -75.4806 257° West 318 366 40,000  Level Boston Center
Sat 04:59:40 PM 42.8600 -75.5967 257° West 316 364 40,000  Level Boston Center
Sat 05:00:41 PM 42.8397 -75.7131 257° West 316 364 40,000  Level Boston Center
Sat 05:01:42 PM 42.8194 -75.8289 257° West 316 364 40,000  Level Boston Center
Sat 05:02:43 PM 42.7983 -75.9456 256° West 316 364 40,000  Level Boston Center
Sat 05:03:45 PM 42.7772 -76.0625 256° West 317 365 40,000  Level Boston Center
Sat 05:04:46 PM 42.7572 -76.1811 257° West 318 366 40,000  Level Boston Center
Sat 05:05:47 PM 42.7328 -76.3133 256° West 322 371 40,000  Level Boston Center
Sat 05:06:48 PM 42.7119 -76.4339 257° West 326 375 40,000  Level Boston Center
Sat 05:07:49 PM 42.6894 -76.5536 256° West 327 376 40,000  Level Boston Center
Sat 05:08:50 PM 42.6672 -76.6747 256° West 328 377 40,000  Level Boston Center
Sat 05:09:51 PM 42.6453 -76.7947 256° West 328 377 40,000  Level Boston Center
Sat 05:10:53 PM 42.6225 -76.9144 256° West 328 377 40,000  Level Boston Center
Sat 05:11:29 PM 42.6092 -76.9850 256° West 328 377 40,000  Level Cleveland Center
Sat 05:12:31 PM 42.5872 -77.1064 256° West 328 377 40,000  Level Cleveland Center
Sat 05:13:32 PM 42.5644 -77.2256 255° West 327 376 40,000  Level Cleveland Center
Sat 05:14:34 PM 42.5417 -77.3450 256° West 327 376 40,000  Level Cleveland Center
Sat 05:15:35 PM 42.5158 -77.4747 255° West 327 376 40,000  Level Cleveland Center
Sat 05:16:37 PM 42.4931 -77.5947 256° West 327 376 40,000  Level Cleveland Center
Sat 05:17:38 PM 42.4706 -77.7156 256° West 330 380 40,000  Level Cleveland Center
Sat 05:18:40 PM 42.4425 -77.8567 255° West 330 380 40,000  Level Cleveland Center
Sat 05:19:42 PM 42.4192 -77.9789 256° West 331 381 40,000  Level Cleveland Center
Sat 05:20:43 PM 42.3947 -78.1003 255° West 332 382 40,000  Level Cleveland Center
Sat 05:21:45 PM 42.3706 -78.2228 255° West 337 388 40,000 -48 Level Cleveland Center
Sat 05:22:47 PM 42.3469 -78.3447 255° West 337 388 39,900 -2,098 Descending Cleveland Center
Sat 05:23:48 PM 42.3211 -78.4706 255° West 344 396 35,700 -3,073 Descending Cleveland Center
Sat 05:24:50 PM 42.2919 -78.6172 255° West 398 458 33,600 -1,306 Descending Cleveland Center
Sat 05:25:52 PM 42.2558 -78.7989 255° West 413 475 33,000 -732 Descending Cleveland Center
Sat 05:26:53 PM 42.2272 -78.9378 254° West 415 478 32,100 -878 Descending Cleveland Center
Sat 05:27:55 PM 42.1967 -79.0853 254° West 413 475 31,200 -871 Descending Cleveland Center
Sat 05:28:57 PM 42.1608 -79.2317 252° West 414 476 30,300 -581 Descending Cleveland Center
Sat 05:29:59 PM 42.1142 -79.4111 251° West 422 486 30,000 -146 Descending Cleveland Center
Sat 05:31:00 PM 42.0756 -79.5581 251° West 422 486 30,000  Level Cleveland Center
Sat 05:32:02 PM 42.0364 -79.7056 250° West 425 489 30,000  Level Cleveland Center
Sat 05:33:04 PM 41.9978 -79.8528 251° West 425 489 30,000  Level Cleveland Center
Sat 05:34:06 PM 41.9553 -80.0133 250° West 425 489 30,000  Level Cleveland Center
Sat 05:35:07 PM 41.9153 -80.1650 251° West 427 491 30,000  Level Cleveland Center
Sat 05:36:09 PM 41.8739 -80.3164 250° West 428 493 30,000  Level Cleveland Center
Sat 05:37:11 PM 41.8319 -80.4678 250° West 428 493 30,000  Level Cleveland Center
Sat 05:38:13 PM 41.7911 -80.6189 250° West 428 493 30,000  Level Cleveland Center
Sat 05:39:14 PM 41.7431 -80.7947 250° West 428 493 30,000  Level Cleveland Center
Sat 05:40:16 PM 41.7008 -80.9453 249° West 428 493 30,000  Level Cleveland Center
Sat 05:41:18 PM 41.6600 -81.0969 250° West 428 493 30,000  Level Cleveland Center
Sat 05:42:20 PM 41.6211 -81.2469 251° West 428 493 30,000  Level Cleveland Center
Sat 05:43:22 PM 41.6150 -81.4033 267° West 426 490 30,000  Level Cleveland Center
Sat 05:44:24 PM 41.6092 -81.5600 267° West 422 486 30,000  Level Cleveland Center
Sat 05:45:25 PM 41.6058 -81.7175 268° West 423 487 30,000  Level Cleveland Center
Sat 05:46:27 PM 41.5994 -81.9011 267° West 423 487 30,000  Level Cleveland Center
Sat 05:47:29 PM 41.5947 -82.0606 268° West 427 491 30,000  Level Cleveland Center
Sat 05:48:31 PM 41.5889 -82.2189 267° West 427 491 30,000  Level Cleveland Center
Sat 05:49:33 PM 41.5836 -82.3797 268° West 428 493 30,000  Level Cleveland Center
Sat 05:50:35 PM 41.5778 -82.5406 267° West 429 494 30,000  Level Cleveland Center
Sat 05:51:37 PM 41.5714 -82.7008 267° West 430 495 30,000  Level Cleveland Center
Sat 05:52:39 PM 41.5639 -82.8875 267° West 430 495 30,000  Level Cleveland Center
Sat 05:53:41 PM 41.5578 -83.0494 267° West 430 495 30,000  Level Cleveland Center
Sat 05:54:43 PM 41.5508 -83.2089 267° West 431 496 30,000  Level Cleveland Center
Sat 05:55:44 PM 41.5436 -83.3669 267° West 430 495 30,000  Level Cleveland Center
Sat 05:56:46 PM 41.5361 -83.5258 266° West 429 494 30,000  Level Cleveland Center
Sat 05:57:48 PM 41.5286 -83.6850 266° West 429 494 30,000 48 Level Cleveland Center
Sat 05:58:50 PM 41.5219 -83.8456 267° West 430 495 30,100  Climbing Cleveland Center
Sat 05:59:53 PM 41.5122 -84.0403 266° West 434 499 30,000 -48 Descending Cleveland Center
Sat 06:00:55 PM 41.5036 -84.2008 266° West 435 501 30,000  Level Cleveland Center
Sat 06:01:57 PM 41.4964 -84.3417 266° West 435 501 30,000  Level Cleveland Center
Sat 06:02:59 PM 41.4864 -84.5353 266° West 435 501 30,000  Level Cleveland Center
Sat 06:04:00 PM 41.4806 -84.6961 267° West 435 501 30,000  Level Cleveland Center
Sat 06:05:02 PM 41.4886 -84.8581 274° West 437 503 30,000  Level Cleveland Center
Sat 06:06:04 PM 41.4950 -85.0208 273° West 437 503 30,000  Level Cleveland Center
Sat 06:07:06 PM 41.5008 -85.1833 273° West 437 503 30,000 -677 Level Cleveland Center
Sat 06:08:08 PM 41.5056 -85.3475 272° West 438 504 28,600 -2,032 Descending Cleveland Center
Sat 06:09:10 PM 41.5119 -85.5078 273° West 424 488 25,800 -2,323 Descending Cleveland Center
Sat 06:10:12 PM 41.5167 -85.6583 272° West 404 465 23,800 -1,452 Descending Cleveland Center
Sat 06:11:14 PM 41.5203 -85.8061 272° West 401 461 22,800 -2,049 Descending Cleveland Center
Sat 06:12:15 PM 41.5228 -85.9797 271° West 392 451 19,600 -2,488 Descending Cleveland Center
Sat 06:13:17 PM 41.5250 -86.1172 271° West 377 434 17,700 -1,355 Descending Cleveland Center
Sat 06:14:19 PM 41.5239 -86.2544 269° West 372 428 16,800 -1,452 Descending Cleveland Center
Sat 06:15:21 PM 41.5222 -86.3906 269° West 371 427 14,700 -2,481 Descending Cleveland Center
Sat 06:16:32 PM 41.5214 -86.5525 270° West 365 420 11,300 -2,136 Descending Chicago Center
Sat 06:17:33 PM 41.5192 -86.6808 269° West 350 403 10,000 -634 Descending Chicago Center
Sat 06:18:35 PM 41.5225 -86.8192 272° West 346 398 10,000 -48 Level Chicago Center
Sat 06:19:37 PM 41.5208 -86.9450 269° West 305 351 9,900 -927 Descending Chicago Center
Sat 06:20:38 PM 41.5183 -87.0472 268° West 278 320 8,100 -1,854 Descending Chicago Center
Sat 06:21:40 PM 41.5181 -87.1533 270° West 283 326 6,100 -1,024 Descending Chicago Center
Sat 06:22:41 PM 41.5228 -87.2636 273° West 275 316 6,000 -146 Descending Chicago Center
Sat 06:23:43 PM 41.5281 -87.3622 274° West 269 310 5,800 -581 Descending Chicago Center
Sat 06:24:45 PM 41.5333 -87.4603 274° West 267 307 4,800 -878 Descending Chicago Center
Sat 06:25:46 PM 41.5389 -87.5675 274° West 267 307 4,000 -390 Descending Chicago Center
Sat 06:26:48 PM 41.5439 -87.6644 274° West 266 306 4,000 -244 Level Chicago Center
Sat 06:27:49 PM 41.5794 -87.7428 301° West 269 310 3,500 -585 Descending Chicago Center
Sat 06:28:51 PM 41.6475 -87.7911 332° Northwest 268 308 2,800 -488 Descending Chicago Center
Sat 06:29:52 PM 41.7122 -87.8325 334° Northwest 239 275 2,500 -634 Descending Chicago Center
Sat 06:30:54 PM 41.7489 -87.7978 35° Northeast 161 185 1,500 -829 Descending Chicago Center
Sat 06:31:55 PM 41.7736 -87.7650 45° Northeast 128 147 800 -390 Descending Chicago Center
Sat 06:32:57 PM 41.7967 -87.7358 43° Northeast 128 147 700 -97 Descending Chicago Center

Login

Don't have an account? Register now (free) for customized features, flight alerts, and more!